sensor_id;sensor_type;location;lat;lon;timestamp;pressure;altitude;pressure_sealevel;temperature;humidity
5550;BME280;2798;42.716;23.256;2022-11-14T00:00:28;95820.97;;;10.85;70.85
5550;BME280;2798;42.716;23.256;2022-11-14T00:02:54;95814.91;;;10.86;70.69
5550;BME280;2798;42.716;23.256;2022-11-14T00:05:20;95820.97;;;10.85;70.54
5550;BME280;2798;42.716;23.256;2022-11-14T00:07:46;95811.69;;;10.83;70.45
5550;BME280;2798;42.716;23.256;2022-11-14T00:10:15;95814.34;;;10.81;70.49
5550;BME280;2798;42.716;23.256;2022-11-14T00:12:41;95810.09;;;10.80;70.41
5550;BME280;2798;42.716;23.256;2022-11-14T00:15:07;95796.44;;;10.63;70.45
5550;BME280;2798;42.716;23.256;2022-11-14T00:17:32;95811.19;;;10.76;70.40
5550;BME280;2798;42.716;23.256;2022-11-14T00:19:58;95814.69;;;10.75;70.30
5550;BME280;2798;42.716;23.256;2022-11-14T00:22:23;95808.78;;;10.73;70.48
5550;BME280;2798;42.716;23.256;2022-11-14T00:24:48;95814.94;;;10.70;70.44
5550;BME280;2798;42.716;23.256;2022-11-14T00:27:14;95814.84;;;10.72;70.33
5550;BME280;2798;42.716;23.256;2022-11-14T00:29:40;95819.25;;;10.70;70.44
5550;BME280;2798;42.716;23.256;2022-11-14T00:32:06;95807.63;;;10.62;70.56
5550;BME280;2798;42.716;23.256;2022-11-14T00:34:32;95814.28;;;10.67;70.48
5550;BME280;2798;42.716;23.256;2022-11-14T00:36:57;95827.22;;;10.65;70.58
5550;BME280;2798;42.716;23.256;2022-11-14T00:39:23;95826.41;;;10.65;70.63
5550;BME280;2798;42.716;23.256;2022-11-14T00:41:48;95817.91;;;10.62;70.29
5550;BME280;2798;42.716;23.256;2022-11-14T00:44:13;95813.69;;;10.61;70.33
5550;BME280;2798;42.716;23.256;2022-11-14T00:46:39;95823.06;;;10.62;70.47
5550;BME280;2798;42.716;23.256;2022-11-14T00:49:04;95820.56;;;10.61;70.30
5550;BME280;2798;42.716;23.256;2022-11-14T00:51:30;95815.59;;;10.58;70.32
5550;BME280;2798;42.716;23.256;2022-11-14T00:53:55;95816.53;;;10.57;70.26
5550;BME280;2798;42.716;23.256;2022-11-14T00:56:20;95814.03;;;10.55;70.27
5550;BME280;2798;42.716;23.256;2022-11-14T00:58:46;95808.31;;;10.50;70.52
5550;BME280;2798;42.716;23.256;2022-11-14T01:01:11;95809.13;;;10.50;70.21
5550;BME280;2798;42.716;23.256;2022-11-14T01:03:37;95800.97;;;10.42;70.40
5550;BME280;2798;42.716;23.256;2022-11-14T01:06:05;95770.34;;;10.21;70.09
5550;BME280;2798;42.716;23.256;2022-11-14T01:08:31;95816.25;;;10.45;70.27
5550;BME280;2798;42.716;23.256;2022-11-14T01:10:56;95799.56;;;10.36;69.92
5550;BME280;2798;42.716;23.256;2022-11-14T01:13:21;95813.66;;;10.45;69.64
5550;BME280;2798;42.716;23.256;2022-11-14T01:15:48;95784.06;;;10.22;70.18
5550;BME280;2798;42.716;23.256;2022-11-14T01:18:16;95834.44;;;10.42;69.40
5550;BME280;2798;42.716;23.256;2022-11-14T01:20:44;95813.09;;;10.40;70.10
5550;BME280;2798;42.716;23.256;2022-11-14T01:23:11;95807.38;;;10.35;69.81
5550;BME280;2798;42.716;23.256;2022-11-14T01:25:37;95803.03;;;10.35;69.50
5550;BME280;2798;42.716;23.256;2022-11-14T01:28:09;95805.63;;;10.35;69.47
5550;BME280;2798;42.716;23.256;2022-11-14T01:30:35;95796.31;;;10.33;69.47
5550;BME280;2798;42.716;23.256;2022-11-14T01:33:01;95802.44;;;10.30;69.53
5550;BME280;2798;42.716;23.256;2022-11-14T01:35:26;95795.66;;;10.29;69.84
5550;BME280;2798;42.716;23.256;2022-11-14T01:37:52;95791.53;;;10.26;69.46
5550;BME280;2798;42.716;23.256;2022-11-14T01:40:18;95794.25;;;10.23;69.58
5550;BME280;2798;42.716;23.256;2022-11-14T01:46:04;95783.28;;;10.20;69.63
5550;BME280;2798;42.716;23.256;2022-11-14T01:51:31;95795.56;;;10.14;69.18
5550;BME280;2798;42.716;23.256;2022-11-14T01:54:01;95778.47;;;10.13;69.27
5550;BME280;2798;42.716;23.256;2022-11-14T01:56:34;95778.56;;;10.12;68.92
5550;BME280;2798;42.716;23.256;2022-11-14T01:59:08;95779.38;;;10.12;68.87
5550;BME280;2798;42.716;23.256;2022-11-14T02:01:36;95772.75;;;10.08;68.98
5550;BME280;2798;42.716;23.256;2022-11-14T02:04:04;95772.84;;;10.07;68.96
5550;BME280;2798;42.716;23.256;2022-11-14T02:06:32;95764.38;;;10.05;68.62
5550;BME280;2798;42.716;23.256;2022-11-14T02:09:03;95765.19;;;10.05;69.18
5550;BME280;2798;42.716;23.256;2022-11-14T02:11:31;95760.13;;;10.04;68.98
5550;BME280;2798;42.716;23.256;2022-11-14T02:14:00;95766.13;;;10.04;68.67
5550;BME280;2798;42.716;23.256;2022-11-14T02:16:26;95746.09;;;9.93;69.01
5550;BME280;2798;42.716;23.256;2022-11-14T02:18:52;95752.34;;;10.05;69.10
5550;BME280;2798;42.716;23.256;2022-11-14T02:21:17;95745.72;;;10.01;68.98
5550;BME280;2798;42.716;23.256;2022-11-14T02:23:43;95746.78;;;9.97;68.83
5550;BME280;2798;42.716;23.256;2022-11-14T02:26:08;95758.06;;;9.94;69.08
5550;BME280;2798;42.716;23.256;2022-11-14T02:28:34;95753.09;;;9.91;69.06
5550;BME280;2798;42.716;23.256;2022-11-14T02:30:59;95747.03;;;9.92;68.91
5550;BME280;2798;42.716;23.256;2022-11-14T02:33:25;95750.53;;;9.91;68.95
5550;BME280;2798;42.716;23.256;2022-11-14T02:35:50;95753.97;;;9.90;69.38
5550;BME280;2798;42.716;23.256;2022-11-14T02:38:19;95757.47;;;9.89;69.04
5550;BME280;2798;42.716;23.256;2022-11-14T02:40:44;95746.50;;;9.85;68.52
5550;BME280;2798;42.716;23.256;2022-11-14T02:43:10;95749.25;;;9.82;68.65
5550;BME280;2798;42.716;23.256;2022-11-14T02:45:35;95754.38;;;9.82;69.03
5550;BME280;2798;42.716;23.256;2022-11-14T02:48:00;95744.28;;;9.79;68.64
5550;BME280;2798;42.716;23.256;2022-11-14T02:50:26;95744.19;;;9.81;68.64
5550;BME280;2798;42.716;23.256;2022-11-14T02:52:51;95753.50;;;9.83;69.22
5550;BME280;2798;42.716;23.256;2022-11-14T02:55:19;95747.75;;;9.78;68.76
5550;BME280;2798;42.716;23.256;2022-11-14T02:57:44;95748.75;;;9.75;68.68
5550;BME280;2798;42.716;23.256;2022-11-14T03:00:10;95752.91;;;9.78;69.25
5550;BME280;2798;42.716;23.256;2022-11-14T03:02:35;95748.75;;;9.75;69.15
5550;BME280;2798;42.716;23.256;2022-11-14T03:05:01;95740.22;;;9.75;69.25
5550;BME280;2798;42.716;23.256;2022-11-14T03:07:26;95747.94;;;9.75;69.14
5550;BME280;2798;42.716;23.256;2022-11-14T03:09:52;95744.59;;;9.73;69.38
5550;BME280;2798;42.716;23.256;2022-11-14T03:12:17;95747.94;;;9.75;68.80
5550;BME280;2798;42.716;23.256;2022-11-14T03:14:43;95736.72;;;9.76;69.71
5550;BME280;2798;42.716;23.256;2022-11-14T03:17:08;95742.78;;;9.75;69.08
5550;BME280;2798;42.716;23.256;2022-11-14T03:19:34;95745.19;;;9.78;69.54
5550;BME280;2798;42.716;23.256;2022-11-14T03:21:59;95737.47;;;9.78;69.59
5550;BME280;2798;42.716;23.256;2022-11-14T03:24:25;95743.44;;;9.79;69.52
5550;BME280;2798;42.716;23.256;2022-11-14T03:26:50;95737.31;;;9.81;69.18
5550;BME280;2798;42.716;23.256;2022-11-14T03:29:15;95741.53;;;9.82;69.85
5550;BME280;2798;42.716;23.256;2022-11-14T03:31:41;95748.34;;;9.83;70.04
5550;BME280;2798;42.716;23.256;2022-11-14T03:34:08;95752.50;;;9.86;69.64
5550;BME280;2798;42.716;23.256;2022-11-14T03:36:34;95748.19;;;9.86;69.79
5550;BME280;2798;42.716;23.256;2022-11-14T03:38:59;95745.63;;;9.86;69.98
5550;BME280;2798;42.716;23.256;2022-11-14T03:41:24;95732.25;;;9.80;69.64
5550;BME280;2798;42.716;23.256;2022-11-14T03:43:50;95743.69;;;9.90;70.04
5550;BME280;2798;42.716;23.256;2022-11-14T03:46:15;95739.41;;;9.91;70.16
5550;BME280;2798;42.716;23.256;2022-11-14T03:48:41;95743.69;;;9.90;69.74
5550;BME280;2798;42.716;23.256;2022-11-14T03:51:06;95735.34;;;9.86;70.28
5550;BME280;2798;42.716;23.256;2022-11-14T03:53:31;95741.88;;;9.92;70.24
5550;BME280;2798;42.716;23.256;2022-11-14T03:55:57;95734.16;;;9.92;70.23
5550;BME280;2798;42.716;23.256;2022-11-14T03:58:22;95730.59;;;9.95;70.17
5550;BME280;2798;42.716;23.256;2022-11-14T04:00:48;95728.94;;;9.94;70.24
5550;BME280;2798;42.716;23.256;2022-11-14T04:03:13;95726.38;;;9.94;70.04
5550;BME280;2798;42.716;23.256;2022-11-14T04:05:38;95730.59;;;9.95;70.57
5550;BME280;2798;42.716;23.256;2022-11-14T04:08:07;95735.72;;;9.95;70.26
5550;BME280;2798;42.716;23.256;2022-11-14T04:10:32;95728.84;;;9.95;70.59
5550;BME280;2798;42.716;23.256;2022-11-14T04:12:57;95736.50;;;9.97;70.40
5550;BME280;2798;42.716;23.256;2022-11-14T04:15:23;95737.34;;;9.97;70.33
5550;BME280;2798;42.716;23.256;2022-11-14T04:17:48;95733.84;;;9.98;70.73
5550;BME280;2798;42.716;23.256;2022-11-14T04:20:14;95738.13;;;9.98;70.65
5550;BME280;2798;42.716;23.256;2022-11-14T04:22:39;95735.56;;;9.98;70.65
5550;BME280;2798;42.716;23.256;2022-11-14T04:25:06;95731.19;;;10.00;70.61
5550;BME280;2798;42.716;23.256;2022-11-14T04:27:32;95728.59;;;10.00;70.74
5550;BME280;2798;42.716;23.256;2022-11-14T04:29:58;95733.66;;;10.01;70.45
5550;BME280;2798;42.716;23.256;2022-11-14T04:32:23;95723.28;;;10.03;70.46
5550;BME280;2798;42.716;23.256;2022-11-14T04:34:49;95710.09;;;9.93;70.58
5550;BME280;2798;42.716;23.256;2022-11-14T04:37:14;95718.41;;;9.98;70.70
5550;BME280;2798;42.716;23.256;2022-11-14T04:39:39;95724.31;;;10.00;71.42
5550;BME280;2798;42.716;23.256;2022-11-14T04:42:05;95726.88;;;10.00;71.23
5550;BME280;2798;42.716;23.256;2022-11-14T04:44:30;95727.53;;;10.04;71.09
5550;BME280;2798;42.716;23.256;2022-11-14T04:46:57;95725.78;;;10.05;71.48
5550;BME280;2798;42.716;23.256;2022-11-14T04:49:22;95718.16;;;10.03;71.73
5550;BME280;2798;42.716;23.256;2022-11-14T04:51:48;95727.47;;;10.06;70.88
5550;BME280;2798;42.716;23.256;2022-11-14T04:54:13;95726.63;;;10.05;71.47
5550;BME280;2798;42.716;23.256;2022-11-14T04:56:39;95719.75;;;10.06;71.66
5550;BME280;2798;42.716;23.256;2022-11-14T04:59:05;95716.41;;;10.04;71.30
5550;BME280;2798;42.716;23.256;2022-11-14T05:01:30;95721.56;;;10.04;71.44
5550;BME280;2798;42.716;23.256;2022-11-14T05:03:55;95717.25;;;10.04;71.82
5550;BME280;2798;42.716;23.256;2022-11-14T05:06:21;95718.81;;;10.07;71.90
5550;BME280;2798;42.716;23.256;2022-11-14T05:08:46;95722.22;;;10.07;71.81
5550;BME280;2798;42.716;23.256;2022-11-14T05:11:17;95727.53;;;10.04;72.12
5550;BME280;2798;42.716;23.256;2022-11-14T05:13:43;95737.00;;;10.04;71.97
5550;BME280;2798;42.716;23.256;2022-11-14T05:16:08;95738.00;;;10.01;72.66
5550;BME280;2798;42.716;23.256;2022-11-14T05:18:34;95740.41;;;10.04;72.24
5550;BME280;2798;42.716;23.256;2022-11-14T05:21:00;95733.59;;;10.03;72.00
5550;BME280;2798;42.716;23.256;2022-11-14T05:23:26;95741.31;;;10.03;72.70
5550;BME280;2798;42.716;23.256;2022-11-14T05:26:02;95728.09;;;9.93;72.65
5550;BME280;2798;42.716;23.256;2022-11-14T05:28:28;95738.00;;;10.01;72.63
5550;BME280;2798;42.716;23.256;2022-11-14T05:31:02;95740.50;;;10.02;72.30
5550;BME280;2798;42.716;23.256;2022-11-14T05:33:28;95738.13;;;9.98;72.56
5550;BME280;2798;42.716;23.256;2022-11-14T05:35:53;95739.81;;;9.99;72.62
5550;BME280;2798;42.716;23.256;2022-11-14T05:38:19;95739.16;;;9.95;72.71
5550;BME280;2798;42.716;23.256;2022-11-14T05:40:44;95736.50;;;9.97;72.48
5550;BME280;2798;42.716;23.256;2022-11-14T05:43:10;95739.97;;;9.96;72.24
5550;BME280;2798;42.716;23.256;2022-11-14T05:45:35;95736.56;;;9.95;72.35
5550;BME280;2798;42.716;23.256;2022-11-14T05:48:00;95736.56;;;9.95;71.88
5550;BME280;2798;42.716;23.256;2022-11-14T05:50:26;95740.97;;;9.93;72.02
5550;BME280;2798;42.716;23.256;2022-11-14T05:52:51;95745.94;;;9.96;71.96
5550;BME280;2798;42.716;23.256;2022-11-14T05:55:16;95742.63;;;9.94;72.71
5550;BME280;2798;42.716;23.256;2022-11-14T05:57:42;95745.03;;;9.97;73.43
5550;BME280;2798;42.716;23.256;2022-11-14T06:00:08;95748.13;;;10.04;73.96
5550;BME280;2798;42.716;23.256;2022-11-14T06:02:33;95751.50;;;10.05;74.44
5550;BME280;2798;42.716;23.256;2022-11-14T06:04:59;95757.31;;;10.08;73.92
5550;BME280;2798;42.716;23.256;2022-11-14T06:07:25;95753.81;;;10.09;75.84
5550;BME280;2798;42.716;23.256;2022-11-14T06:09:50;95757.81;;;10.15;76.38
5550;BME280;2798;42.716;23.256;2022-11-14T06:12:15;95760.22;;;10.18;76.33
5550;BME280;2798;42.716;23.256;2022-11-14T06:14:41;95749.28;;;10.14;76.20
5550;BME280;2798;42.716;23.256;2022-11-14T06:17:06;95767.69;;;10.23;76.27
5550;BME280;2798;42.716;23.256;2022-11-14T06:19:32;95767.59;;;10.24;76.39
5550;BME280;2798;42.716;23.256;2022-11-14T06:21:57;95765.88;;;10.25;75.99
5550;BME280;2798;42.716;23.256;2022-11-14T06:24:22;95769.34;;;10.24;76.66
5550;BME280;2798;42.716;23.256;2022-11-14T06:26:48;95767.44;;;10.27;76.33
5550;BME280;2798;42.716;23.256;2022-11-14T06:29:13;95764.88;;;10.27;76.26
5550;BME280;2798;42.716;23.256;2022-11-14T06:31:39;95760.56;;;10.28;77.06
5550;BME280;2798;42.716;23.256;2022-11-14T06:34:04;95760.47;;;10.30;77.58
5550;BME280;2798;42.716;23.256;2022-11-14T06:36:30;95762.63;;;10.37;77.32
5550;BME280;2798;42.716;23.256;2022-11-14T06:38:55;95763.22;;;10.43;78.07
5550;BME280;2798;42.716;23.256;2022-11-14T06:41:22;95763.88;;;10.46;78.87
5550;BME280;2798;42.716;23.256;2022-11-14T06:43:49;95751.69;;;10.50;79.06
5550;BME280;2798;42.716;23.256;2022-11-14T06:46:18;95761.63;;;10.56;79.34
5550;BME280;2798;42.716;23.256;2022-11-14T06:48:45;95758.06;;;10.59;79.44
5550;BME280;2798;42.716;23.256;2022-11-14T06:51:11;95755.22;;;10.63;80.06
5550;BME280;2798;42.716;23.256;2022-11-14T06:53:37;95755.91;;;10.67;79.90
5550;BME280;2798;42.716;23.256;2022-11-14T06:56:05;95759.94;;;10.71;80.35
5550;BME280;2798;42.716;23.256;2022-11-14T06:58:35;95750.31;;;10.75;80.30
5550;BME280;2798;42.716;23.256;2022-11-14T07:01:05;95750.84;;;10.80;80.64
5550;BME280;2798;42.716;23.256;2022-11-14T07:03:32;95749.69;;;10.86;80.42
5550;BME280;2798;42.716;23.256;2022-11-14T07:06:01;95744.28;;;10.91;80.55
5550;BME280;2798;42.716;23.256;2022-11-14T07:08:27;95777.50;;;10.95;80.50
5550;BME280;2798;42.716;23.256;2022-11-14T07:10:52;95748.16;;;10.98;80.56
5550;BME280;2798;42.716;23.256;2022-11-14T07:13:18;95745.34;;;11.03;80.50
5550;BME280;2798;42.716;23.256;2022-11-14T07:15:53;95746.06;;;11.05;80.57
5550;BME280;2798;42.716;23.256;2022-11-14T07:18:19;95750.94;;;11.09;80.56
5550;BME280;2798;42.716;23.256;2022-11-14T07:20:46;95752.44;;;11.13;80.67
5550;BME280;2798;42.716;23.256;2022-11-14T07:23:11;95750.56;;;11.16;80.87
5550;BME280;2798;42.716;23.256;2022-11-14T07:25:37;95757.13;;;11.21;80.77
5550;BME280;2798;42.716;23.256;2022-11-14T07:28:03;95755.22;;;11.25;80.75
5550;BME280;2798;42.716;23.256;2022-11-14T07:30:28;95746.56;;;11.26;80.90
5550;BME280;2798;42.716;23.256;2022-11-14T07:32:55;95742.16;;;11.28;81.21
5550;BME280;2798;42.716;23.256;2022-11-14T07:35:20;95748.69;;;11.34;81.31
5550;BME280;2798;42.716;23.256;2022-11-14T07:37:45;95747.69;;;11.36;81.18
5550;BME280;2798;42.716;23.256;2022-11-14T07:40:11;95740.47;;;11.42;81.25
5550;BME280;2798;42.716;23.256;2022-11-14T07:42:36;95737.72;;;11.45;81.29
5550;BME280;2798;42.716;23.256;2022-11-14T07:45:02;95740.94;;;11.48;81.69
5550;BME280;2798;42.716;23.256;2022-11-14T07:47:27;95738.09;;;11.53;81.59
5550;BME280;2798;42.716;23.256;2022-11-14T07:49:53;95741.41;;;11.55;81.35
5550;BME280;2798;42.716;23.256;2022-11-14T07:52:18;95744.66;;;11.59;81.38
5550;BME280;2798;42.716;23.256;2022-11-14T07:54:44;95742.69;;;11.62;81.66
5550;BME280;2798;42.716;23.256;2022-11-14T07:57:12;95734.69;;;11.67;81.38
5550;BME280;2798;42.716;23.256;2022-11-14T07:59:37;95731.09;;;11.70;81.42
5550;BME280;2798;42.716;23.256;2022-11-14T08:02:03;95729.97;;;11.74;81.90
5550;BME280;2798;42.716;23.256;2022-11-14T08:04:28;95733.22;;;11.78;81.38
5550;BME280;2798;42.716;23.256;2022-11-14T08:06:54;95724.25;;;11.83;81.73
5550;BME280;2798;42.716;23.256;2022-11-14T08:09:19;95731.00;;;11.86;82.15
5550;BME280;2798;42.716;23.256;2022-11-14T08:11:44;95725.66;;;11.89;81.65
5550;BME280;2798;42.716;23.256;2022-11-14T08:14:13;95730.63;;;11.92;81.61
5550;BME280;2798;42.716;23.256;2022-11-14T08:16:39;95727.00;;;11.95;81.42
5550;BME280;2798;42.716;23.256;2022-11-14T08:19:04;95725.91;;;11.99;81.49
5550;BME280;2798;42.716;23.256;2022-11-14T08:21:30;95732.41;;;12.05;81.63
5550;BME280;2798;42.716;23.256;2022-11-14T08:23:55;95728.09;;;12.05;81.26
5550;BME280;2798;42.716;23.256;2022-11-14T08:26:21;95732.06;;;12.11;81.29
5550;BME280;2798;42.716;23.256;2022-11-14T08:28:46;95728.38;;;12.15;81.51
5550;BME280;2798;42.716;23.256;2022-11-14T08:31:11;95720.34;;;12.20;82.04
5550;BME280;2798;42.716;23.256;2022-11-14T08:33:38;95698.63;;;12.09;81.83
5550;BME280;2798;42.716;23.256;2022-11-14T08:36:05;95724.94;;;12.29;81.48
5550;BME280;2798;42.716;23.256;2022-11-14T08:38:32;95724.63;;;12.34;80.92
5550;BME280;2798;42.716;23.256;2022-11-14T08:41:01;95728.75;;;12.36;81.04
5550;BME280;2798;42.716;23.256;2022-11-14T08:43:28;95700.06;;;12.28;80.98
5550;BME280;2798;42.716;23.256;2022-11-14T08:45:58;95702.44;;;12.31;81.33
5550;BME280;2798;42.716;23.256;2022-11-14T08:48:25;95715.84;;;12.36;80.98
5550;BME280;2798;42.716;23.256;2022-11-14T08:50:50;95718.59;;;12.48;81.45
5550;BME280;2798;42.716;23.256;2022-11-14T08:53:16;95714.16;;;12.50;80.56
5550;BME280;2798;42.716;23.256;2022-11-14T08:55:45;95711.38;;;12.53;80.46
5550;BME280;2798;42.716;23.256;2022-11-14T08:58:11;95704.47;;;12.54;80.74
5550;BME280;2798;42.716;23.256;2022-11-14T09:00:36;95705.81;;;12.59;80.23
5550;BME280;2798;42.716;23.256;2022-11-14T09:03:09;95707.28;;;12.64;80.58
5550;BME280;2798;42.716;23.256;2022-11-14T09:05:35;95693.75;;;12.60;80.69
5550;BME280;2798;42.716;23.256;2022-11-14T09:08:01;95700.69;;;12.72;80.59
5550;BME280;2798;42.716;23.256;2022-11-14T09:10:27;95694.50;;;12.75;80.49
5550;BME280;2798;42.716;23.256;2022-11-14T09:12:59;95683.22;;;12.76;80.49
5550;BME280;2798;42.716;23.256;2022-11-14T09:15:26;95672.16;;;12.74;80.53
5550;BME280;2798;42.716;23.256;2022-11-14T09:17:56;95690.16;;;12.89;80.78
5550;BME280;2798;42.716;23.256;2022-11-14T09:20:23;95687.16;;;12.95;81.01
5550;BME280;2798;42.716;23.256;2022-11-14T09:22:49;95665.38;;;12.86;80.81
5550;BME280;2798;42.716;23.256;2022-11-14T09:25:18;95679.84;;;13.02;80.39
5550;BME280;2798;42.716;23.256;2022-11-14T09:27:43;95681.28;;;13.06;80.49
5550;BME280;2798;42.716;23.256;2022-11-14T09:30:09;95677.56;;;13.10;79.45
5550;BME280;2798;42.716;23.256;2022-11-14T09:32:35;95669.63;;;13.13;79.61
5550;BME280;2798;42.716;23.256;2022-11-14T09:35:00;95671.03;;;13.17;79.91
5550;BME280;2798;42.716;23.256;2022-11-14T09:37:26;95665.56;;;13.22;79.69
5550;BME280;2798;42.716;23.256;2022-11-14T09:39:51;95662.69;;;13.27;79.53
5550;BME280;2798;42.716;23.256;2022-11-14T09:45:14;95655.09;;;13.37;79.11
5550;BME280;2798;42.716;23.256;2022-11-14T09:47:43;95653.97;;;13.41;79.20
5550;BME280;2798;42.716;23.256;2022-11-14T09:50:28;95656.97;;;13.47;79.19
5550;BME280;2798;42.716;23.256;2022-11-14T09:52:58;95654.19;;;13.51;79.40
5550;BME280;2798;42.716;23.256;2022-11-14T09:55:30;95646.00;;;13.57;79.23
5550;BME280;2798;42.716;23.256;2022-11-14T09:57:57;95643.84;;;13.64;78.38
5550;BME280;2798;42.716;23.256;2022-11-14T10:00:24;95642.56;;;13.69;78.54
5550;BME280;2798;42.716;23.256;2022-11-14T10:11:16;95638.72;;;14.00;77.84
5550;BME280;2798;42.716;23.256;2022-11-14T10:19:46;95618.63;;;14.28;76.69
5550;BME280;2798;42.716;23.256;2022-11-14T10:22:33;95611.34;;;14.33;75.67
5550;BME280;2798;42.716;23.256;2022-11-14T10:25:40;95607.84;;;14.45;74.76
5550;BME280;2798;42.716;23.256;2022-11-14T10:28:19;95603.97;;;14.51;74.08
5550;BME280;2798;42.716;23.256;2022-11-14T10:39:50;95593.03;;;14.59;72.00
5550;BME280;2798;42.716;23.256;2022-11-14T10:42:46;95585.25;;;14.59;71.88
5550;BME280;2798;42.716;23.256;2022-11-14T10:45:36;95582.78;;;14.57;71.78
5550;BME280;2798;42.716;23.256;2022-11-14T10:48:09;95585.38;;;14.57;71.51
5550;BME280;2798;42.716;23.256;2022-11-14T10:53:32;95576.91;;;14.55;71.15
5550;BME280;2798;42.716;23.256;2022-11-14T10:56:01;95581.50;;;14.52;70.72
5550;BME280;2798;42.716;23.256;2022-11-14T10:58:26;95567.81;;;14.50;70.76
5550;BME280;2798;42.716;23.256;2022-11-14T11:00:52;95569.00;;;14.45;70.92
5550;BME280;2798;42.716;23.256;2022-11-14T11:03:17;95560.84;;;14.39;71.19
5550;BME280;2798;42.716;23.256;2022-11-14T11:05:49;95561.34;;;14.44;71.21
5550;BME280;2798;42.716;23.256;2022-11-14T11:08:21;95557.09;;;14.43;70.89
5550;BME280;2798;42.716;23.256;2022-11-14T11:11:11;95553.09;;;14.39;71.08
5550;BME280;2798;42.716;23.256;2022-11-14T11:13:58;95547.19;;;14.37;71.67
5550;BME280;2798;42.716;23.256;2022-11-14T11:16:26;95545.56;;;14.36;71.20
5550;BME280;2798;42.716;23.256;2022-11-14T11:18:52;95543.31;;;14.31;71.38
5550;BME280;2798;42.716;23.256;2022-11-14T11:21:20;95544.03;;;14.33;71.20
5550;BME280;2798;42.716;23.256;2022-11-14T11:23:54;95539.88;;;14.30;71.57
5550;BME280;2798;42.716;23.256;2022-11-14T11:26:31;95544.94;;;14.32;nan
5550;BME280;2798;42.716;23.256;2022-11-14T11:34:22;95533.97;;;14.28;71.61
5550;BME280;2798;42.716;23.256;2022-11-14T11:36:54;95534.94;;;14.27;71.64
5550;BME280;2798;42.716;23.256;2022-11-14T11:39:27;95537.53;;;14.27;71.53
5550;BME280;2798;42.716;23.256;2022-11-14T11:41:54;95527.75;;;14.19;71.78
5550;BME280;2798;42.716;23.256;2022-11-14T11:44:24;95531.63;;;14.25;71.79
5550;BME280;2798;42.716;23.256;2022-11-14T11:46:56;95527.41;;;14.24;71.92
5550;BME280;2798;42.716;23.256;2022-11-14T11:49:45;95517.16;;;14.23;71.74
5550;BME280;2798;42.716;23.256;2022-11-14T11:55:16;95510.22;;;14.23;71.84
5550;BME280;2798;42.716;23.256;2022-11-14T12:00:21;95477.59;;;13.98;72.07
5550;BME280;2798;42.716;23.256;2022-11-14T12:02:48;95493.34;;;14.06;72.30
5550;BME280;2798;42.716;23.256;2022-11-14T12:10:26;95501.63;;;14.23;72.70
5550;BME280;2798;42.716;23.256;2022-11-14T12:24:45;95487.88;;;14.33;72.86
5550;BME280;2798;42.716;23.256;2022-11-14T12:32:44;95478.72;;;14.41;73.77
5550;BME280;2798;42.716;23.256;2022-11-14T12:35:34;95478.47;;;14.44;73.82
5550;BME280;2798;42.716;23.256;2022-11-14T12:38:02;95462.47;;;14.39;74.23
5550;BME280;2798;42.716;23.256;2022-11-14T12:40:34;95469.53;;;14.48;74.40
5550;BME280;2798;42.716;23.256;2022-11-14T12:43:02;95479.75;;;14.50;74.68
5550;BME280;2798;42.716;23.256;2022-11-14T12:48:20;95481.31;;;14.52;74.64
5550;BME280;2798;42.716;23.256;2022-11-14T12:50:47;95459.88;;;14.50;74.40
5550;BME280;2798;42.716;23.256;2022-11-14T12:53:36;95463.63;;;14.57;74.63
5550;BME280;2798;42.716;23.256;2022-11-14T12:59:02;95462.72;;;14.58;74.26
5550;BME280;2798;42.716;23.256;2022-11-14T13:10:12;95446.81;;;14.63;74.43
5550;BME280;2798;42.716;23.256;2022-11-14T13:12:41;95440.91;;;14.61;74.26
5550;BME280;2798;42.716;23.256;2022-11-14T13:15:30;95446.69;;;14.65;74.38
5550;BME280;2798;42.716;23.256;2022-11-14T13:18:23;95443.84;;;14.68;74.42
5550;BME280;2798;42.716;23.256;2022-11-14T13:21:24;95442.22;;;14.67;74.28
5550;BME280;2798;42.716;23.256;2022-11-14T13:24:08;95436.09;;;14.68;74.14
5550;BME280;2798;42.716;23.256;2022-11-14T13:26:39;95434.31;;;14.68;74.44
5550;BME280;2798;42.716;23.256;2022-11-14T13:29:05;95433.25;;;14.71;74.27
5550;BME280;2798;42.716;23.256;2022-11-14T13:34:00;95421.38;;;14.68;74.22
5550;BME280;2798;42.716;23.256;2022-11-14T13:37:07;95426.88;;;14.75;74.52
5550;BME280;2798;42.716;23.256;2022-11-14T13:39:39;95431.81;;;14.78;74.21
5550;BME280;2798;42.716;23.256;2022-11-14T13:50:31;95426.44;;;14.81;73.75
5550;BME280;2798;42.716;23.256;2022-11-14T13:52:58;95421.94;;;14.83;73.66
5550;BME280;2798;42.716;23.256;2022-11-14T14:09:18;95414.19;;;14.83;73.31
5550;BME280;2798;42.716;23.256;2022-11-14T14:12:07;95414.19;;;14.83;73.34
5550;BME280;2798;42.716;23.256;2022-11-14T14:17:43;95411.72;;;14.82;73.35
5550;BME280;2798;42.716;23.256;2022-11-14T14:20:38;95409.13;;;14.82;73.23
5550;BME280;2798;42.716;23.256;2022-11-14T14:23:21;95413.50;;;14.81;73.52
5550;BME280;2798;42.716;23.256;2022-11-14T14:26:02;95394.63;;;14.68;73.39
5550;BME280;2798;42.716;23.256;2022-11-14T14:31:11;95365.56;;;14.53;73.33
5550;BME280;2798;42.716;23.256;2022-11-14T14:33:49;95409.09;;;14.70;73.42
5550;BME280;2798;42.716;23.256;2022-11-14T14:38:44;95408.78;;;14.64;73.21
5550;BME280;2798;42.716;23.256;2022-11-14T14:41:10;95414.06;;;14.62;73.42
5550;BME280;2798;42.716;23.256;2022-11-14T14:43:40;95404.88;;;14.58;73.67
5550;BME280;2798;42.716;23.256;2022-11-14T14:46:06;95406.88;;;14.54;73.68
5550;BME280;2798;42.716;23.256;2022-11-14T14:48:34;95408.06;;;14.50;73.64
5550;BME280;2798;42.716;23.256;2022-11-14T14:51:00;95404.19;;;14.44;74.03
5550;BME280;2798;42.716;23.256;2022-11-14T14:53:33;95403.72;;;14.39;74.45
5550;BME280;2798;42.716;23.256;2022-11-14T14:56:04;95406.78;;;14.33;74.36
5550;BME280;2798;42.716;23.256;2022-11-14T14:58:32;95405.47;;;14.27;74.76
5550;BME280;2798;42.716;23.256;2022-11-14T15:01:04;95397.94;;;14.13;75.29
5550;BME280;2798;42.716;23.256;2022-11-14T15:03:35;95405.59;;;14.14;75.37
5550;BME280;2798;42.716;23.256;2022-11-14T15:06:16;95395.81;;;14.06;75.51
5550;BME280;2798;42.716;23.256;2022-11-14T15:08:43;95392.75;;;14.01;75.71
5550;BME280;2798;42.716;23.256;2022-11-14T15:11:09;95384.84;;;13.91;76.21
5550;BME280;2798;42.716;23.256;2022-11-14T15:13:35;95394.53;;;13.89;76.33